sensor_id;sensor_type;location;lat;lon;timestamp;temperature;humidity
728;DHT22;347;48.780;9.158;2022-11-02T00:02:03;13.50;39.10
728;DHT22;347;48.780;9.158;2022-11-02T00:04:29;13.50;38.60
728;DHT22;347;48.780;9.158;2022-11-02T00:06:54;13.70;38.30
728;DHT22;347;48.780;9.158;2022-11-02T00:09:20;13.80;38.10
728;DHT22;347;48.780;9.158;2022-11-02T00:11:46;14.00;37.70
728;DHT22;347;48.780;9.158;2022-11-02T00:14:11;13.90;37.10
728;DHT22;347;48.780;9.158;2022-11-02T00:16:38;13.90;36.40
728;DHT22;347;48.780;9.158;2022-11-02T00:19:05;13.90;37.40
728;DHT22;347;48.780;9.158;2022-11-02T00:21:32;13.90;36.90
728;DHT22;347;48.780;9.158;2022-11-02T00:23:59;13.90;36.80
728;DHT22;347;48.780;9.158;2022-11-02T00:26:26;14.00;37.30
728;DHT22;347;48.780;9.158;2022-11-02T00:28:52;14.10;36.90
728;DHT22;347;48.780;9.158;2022-11-02T00:31:18;14.20;36.20
728;DHT22;347;48.780;9.158;2022-11-02T00:33:44;14.40;35.60
728;DHT22;347;48.780;9.158;2022-11-02T00:36:10;14.50;35.40
728;DHT22;347;48.780;9.158;2022-11-02T00:38:36;14.50;35.40
728;DHT22;347;48.780;9.158;2022-11-02T00:41:01;14.60;35.00
728;DHT22;347;48.780;9.158;2022-11-02T00:43:27;14.60;34.20
728;DHT22;347;48.780;9.158;2022-11-02T00:45:52;14.50;34.60
728;DHT22;347;48.780;9.158;2022-11-02T00:48:18;14.20;35.20
728;DHT22;347;48.780;9.158;2022-11-02T00:50:44;14.00;35.80
728;DHT22;347;48.780;9.158;2022-11-02T00:53:09;13.80;36.30
728;DHT22;347;48.780;9.158;2022-11-02T00:55:35;13.90;36.70
728;DHT22;347;48.780;9.158;2022-11-02T00:58:02;13.90;36.50
728;DHT22;347;48.780;9.158;2022-11-02T01:00:27;13.80;37.10
728;DHT22;347;48.780;9.158;2022-11-02T01:02:53;14.00;37.90
728;DHT22;347;48.780;9.158;2022-11-02T01:05:18;14.10;36.60
728;DHT22;347;48.780;9.158;2022-11-02T01:07:44;14.30;36.50
728;DHT22;347;48.780;9.158;2022-11-02T01:10:10;14.40;35.40
728;DHT22;347;48.780;9.158;2022-11-02T01:12:37;14.50;35.40
728;DHT22;347;48.780;9.158;2022-11-02T01:15:04;14.60;35.20
728;DHT22;347;48.780;9.158;2022-11-02T01:17:30;14.60;34.70
728;DHT22;347;48.780;9.158;2022-11-02T01:19:56;14.60;34.20
728;DHT22;347;48.780;9.158;2022-11-02T01:22:21;14.60;33.90
728;DHT22;347;48.780;9.158;2022-11-02T01:24:47;14.30;35.30
728;DHT22;347;48.780;9.158;2022-11-02T01:27:12;14.00;35.60
728;DHT22;347;48.780;9.158;2022-11-02T01:29:38;13.90;36.10
728;DHT22;347;48.780;9.158;2022-11-02T01:32:04;14.00;36.20
728;DHT22;347;48.780;9.158;2022-11-02T01:34:29;13.80;36.90
728;DHT22;347;48.780;9.158;2022-11-02T01:36:55;13.80;37.10
728;DHT22;347;48.780;9.158;2022-11-02T01:39:21;13.80;36.70
728;DHT22;347;48.780;9.158;2022-11-02T01:41:50;13.70;37.80
728;DHT22;347;48.780;9.158;2022-11-02T01:44:35;13.80;37.40
728;DHT22;347;48.780;9.158;2022-11-02T01:47:07;13.60;37.40
728;DHT22;347;48.780;9.158;2022-11-02T01:49:36;13.60;37.90
728;DHT22;347;48.780;9.158;2022-11-02T01:52:10;13.40;38.80
728;DHT22;347;48.780;9.158;2022-11-02T01:54:43;13.30;39.20
728;DHT22;347;48.780;9.158;2022-11-02T01:57:12;13.30;39.00
728;DHT22;347;48.780;9.158;2022-11-02T01:59:56;13.30;39.00
728;DHT22;347;48.780;9.158;2022-11-02T02:02:24;13.30;39.30
728;DHT22;347;48.780;9.158;2022-11-02T02:04:56;13.20;39.50
728;DHT22;347;48.780;9.158;2022-11-02T02:07:24;13.10;39.40
728;DHT22;347;48.780;9.158;2022-11-02T02:09:51;13.10;40.40
728;DHT22;347;48.780;9.158;2022-11-02T02:12:18;13.10;40.10
728;DHT22;347;48.780;9.158;2022-11-02T02:14:44;13.10;40.20
728;DHT22;347;48.780;9.158;2022-11-02T02:17:41;13.20;39.60
728;DHT22;347;48.780;9.158;2022-11-02T02:20:25;13.30;39.20
728;DHT22;347;48.780;9.158;2022-11-02T02:28:57;13.00;40.20
728;DHT22;347;48.780;9.158;2022-11-02T02:31:37;13.00;40.60
728;DHT22;347;48.780;9.158;2022-11-02T02:36:43;12.80;41.30
728;DHT22;347;48.780;9.158;2022-11-02T02:39:38;12.80;41.70
728;DHT22;347;48.780;9.158;2022-11-02T02:44:32;13.00;41.20
728;DHT22;347;48.780;9.158;2022-11-02T02:47:15;13.10;40.70
728;DHT22;347;48.780;9.158;2022-11-02T02:49:51;13.20;40.30
728;DHT22;347;48.780;9.158;2022-11-02T02:52:19;13.30;40.20
728;DHT22;347;48.780;9.158;2022-11-02T02:54:46;13.30;39.50
728;DHT22;347;48.780;9.158;2022-11-02T02:57:17;13.20;39.50
728;DHT22;347;48.780;9.158;2022-11-02T02:59:45;13.20;40.10
728;DHT22;347;48.780;9.158;2022-11-02T03:02:36;13.20;40.20
728;DHT22;347;48.780;9.158;2022-11-02T03:05:02;13.20;40.00
728;DHT22;347;48.780;9.158;2022-11-02T03:07:46;13.10;40.30
728;DHT22;347;48.780;9.158;2022-11-02T03:20:31;13.20;40.10
728;DHT22;347;48.780;9.158;2022-11-02T03:25:58;13.20;39.80
728;DHT22;347;48.780;9.158;2022-11-02T03:34:25;13.20;40.40
728;DHT22;347;48.780;9.158;2022-11-02T03:39:33;13.20;39.70
728;DHT22;347;48.780;9.158;2022-11-02T03:42:02;13.30;39.80
728;DHT22;347;48.780;9.158;2022-11-02T03:44:30;13.20;39.50
728;DHT22;347;48.780;9.158;2022-11-02T03:46:58;13.10;40.00
728;DHT22;347;48.780;9.158;2022-11-02T03:49:26;13.00;40.00
728;DHT22;347;48.780;9.158;2022-11-02T03:51:54;13.00;39.90
728;DHT22;347;48.780;9.158;2022-11-02T03:54:41;12.80;40.40
728;DHT22;347;48.780;9.158;2022-11-02T03:57:11;12.80;40.70
728;DHT22;347;48.780;9.158;2022-11-02T03:59:37;12.80;40.70
728;DHT22;347;48.780;9.158;2022-11-02T04:02:02;12.80;41.00
728;DHT22;347;48.780;9.158;2022-11-02T04:04:28;12.80;40.70
728;DHT22;347;48.780;9.158;2022-11-02T04:06:54;12.80;40.70
728;DHT22;347;48.780;9.158;2022-11-02T04:09:20;12.90;40.20
728;DHT22;347;48.780;9.158;2022-11-02T04:11:46;12.80;40.10
728;DHT22;347;48.780;9.158;2022-11-02T04:14:30;12.80;40.20
728;DHT22;347;48.780;9.158;2022-11-02T04:17:07;12.80;40.20
728;DHT22;347;48.780;9.158;2022-11-02T04:19:52;12.80;39.90
728;DHT22;347;48.780;9.158;2022-11-02T04:22:18;12.80;39.50
728;DHT22;347;48.780;9.158;2022-11-02T04:25:04;12.90;39.70
728;DHT22;347;48.780;9.158;2022-11-02T04:27:44;12.90;39.50
728;DHT22;347;48.780;9.158;2022-11-02T04:30:11;12.90;39.50
728;DHT22;347;48.780;9.158;2022-11-02T04:32:45;12.90;39.30
728;DHT22;347;48.780;9.158;2022-11-02T04:35:30;12.80;39.40
728;DHT22;347;48.780;9.158;2022-11-02T04:37:57;12.80;39.80
728;DHT22;347;48.780;9.158;2022-11-02T04:40:42;12.80;39.90
728;DHT22;347;48.780;9.158;2022-11-02T04:43:08;12.90;39.60
728;DHT22;347;48.780;9.158;2022-11-02T04:45:33;13.10;39.60
728;DHT22;347;48.780;9.158;2022-11-02T04:48:00;13.10;38.30
728;DHT22;347;48.780;9.158;2022-11-02T04:50:26;13.10;38.50
728;DHT22;347;48.780;9.158;2022-11-02T04:53:00;13.10;38.50
728;DHT22;347;48.780;9.158;2022-11-02T04:55:26;13.10;39.00
728;DHT22;347;48.780;9.158;2022-11-02T04:57:52;13.30;38.80
728;DHT22;347;48.780;9.158;2022-11-02T05:00:19;13.30;38.20
728;DHT22;347;48.780;9.158;2022-11-02T05:02:46;13.20;38.80
728;DHT22;347;48.780;9.158;2022-11-02T05:05:12;13.10;38.80
728;DHT22;347;48.780;9.158;2022-11-02T05:07:38;13.10;38.80
728;DHT22;347;48.780;9.158;2022-11-02T05:10:04;13.10;39.10
728;DHT22;347;48.780;9.158;2022-11-02T05:12:30;13.00;39.10
728;DHT22;347;48.780;9.158;2022-11-02T05:14:55;13.00;39.10
728;DHT22;347;48.780;9.158;2022-11-02T05:17:21;12.90;38.90
728;DHT22;347;48.780;9.158;2022-11-02T05:19:47;12.90;39.20
728;DHT22;347;48.780;9.158;2022-11-02T05:22:12;13.10;39.00
728;DHT22;347;48.780;9.158;2022-11-02T05:24:38;13.20;38.60
728;DHT22;347;48.780;9.158;2022-11-02T05:27:03;13.40;38.30
728;DHT22;347;48.780;9.158;2022-11-02T05:29:29;13.50;37.70
728;DHT22;347;48.780;9.158;2022-11-02T05:31:56;13.50;37.00
728;DHT22;347;48.780;9.158;2022-11-02T05:34:22;13.50;37.20
728;DHT22;347;48.780;9.158;2022-11-02T05:36:48;13.60;35.90
728;DHT22;347;48.780;9.158;2022-11-02T05:39:13;13.50;36.70
728;DHT22;347;48.780;9.158;2022-11-02T05:41:39;13.20;37.40
728;DHT22;347;48.780;9.158;2022-11-02T05:44:05;13.00;38.10
728;DHT22;347;48.780;9.158;2022-11-02T05:46:30;13.00;38.30
728;DHT22;347;48.780;9.158;2022-11-02T05:48:56;12.90;38.60
728;DHT22;347;48.780;9.158;2022-11-02T05:51:22;12.90;38.70
728;DHT22;347;48.780;9.158;2022-11-02T05:53:47;12.80;38.50
728;DHT22;347;48.780;9.158;2022-11-02T05:56:13;12.80;38.50
728;DHT22;347;48.780;9.158;2022-11-02T05:58:39;12.70;38.80
728;DHT22;347;48.780;9.158;2022-11-02T06:01:06;12.70;38.70
728;DHT22;347;48.780;9.158;2022-11-02T06:03:32;12.70;38.60
728;DHT22;347;48.780;9.158;2022-11-02T06:06:00;12.70;39.00
728;DHT22;347;48.780;9.158;2022-11-02T06:08:26;12.70;39.10
728;DHT22;347;48.780;9.158;2022-11-02T06:10:52;12.70;38.70
728;DHT22;347;48.780;9.158;2022-11-02T06:13:18;12.60;39.00
728;DHT22;347;48.780;9.158;2022-11-02T06:15:44;12.70;39.30
728;DHT22;347;48.780;9.158;2022-11-02T06:18:10;12.70;39.10
728;DHT22;347;48.780;9.158;2022-11-02T06:20:35;12.70;38.70
728;DHT22;347;48.780;9.158;2022-11-02T06:23:01;12.70;38.90
728;DHT22;347;48.780;9.158;2022-11-02T06:25:27;12.80;39.20
728;DHT22;347;48.780;9.158;2022-11-02T06:27:54;12.80;38.70
728;DHT22;347;48.780;9.158;2022-11-02T06:30:22;12.90;39.00
728;DHT22;347;48.780;9.158;2022-11-02T06:32:49;12.90;38.90
728;DHT22;347;48.780;9.158;2022-11-02T06:35:16;12.90;38.40
728;DHT22;347;48.780;9.158;2022-11-02T06:37:43;12.90;38.60
728;DHT22;347;48.780;9.158;2022-11-02T06:40:09;13.00;38.60
728;DHT22;347;48.780;9.158;2022-11-02T06:42:36;13.00;38.50
728;DHT22;347;48.780;9.158;2022-11-02T06:45:02;13.10;38.40
728;DHT22;347;48.780;9.158;2022-11-02T06:47:32;13.10;38.40
728;DHT22;347;48.780;9.158;2022-11-02T06:49:59;13.10;38.50
728;DHT22;347;48.780;9.158;2022-11-02T06:52:28;13.00;38.60
728;DHT22;347;48.780;9.158;2022-11-02T06:54:54;13.00;38.90
728;DHT22;347;48.780;9.158;2022-11-02T06:57:21;13.10;38.60
728;DHT22;347;48.780;9.158;2022-11-02T06:59:47;13.20;38.40
728;DHT22;347;48.780;9.158;2022-11-02T07:02:12;13.20;38.70
728;DHT22;347;48.780;9.158;2022-11-02T07:04:38;13.30;38.20
728;DHT22;347;48.780;9.158;2022-11-02T07:07:04;13.30;38.70
728;DHT22;347;48.780;9.158;2022-11-02T07:09:29;13.40;39.60
728;DHT22;347;48.780;9.158;2022-11-02T07:11:55;13.40;39.40
728;DHT22;347;48.780;9.158;2022-11-02T07:14:20;13.50;39.50
728;DHT22;347;48.780;9.158;2022-11-02T07:16:46;13.50;39.10
728;DHT22;347;48.780;9.158;2022-11-02T07:19:12;13.50;38.80
728;DHT22;347;48.780;9.158;2022-11-02T07:21:37;13.60;39.10
728;DHT22;347;48.780;9.158;2022-11-02T07:24:03;13.60;39.10
728;DHT22;347;48.780;9.158;2022-11-02T07:26:29;13.70;38.80
728;DHT22;347;48.780;9.158;2022-11-02T07:28:55;13.90;38.10
728;DHT22;347;48.780;9.158;2022-11-02T07:31:20;14.10;38.00
728;DHT22;347;48.780;9.158;2022-11-02T07:33:46;14.20;37.30
728;DHT22;347;48.780;9.158;2022-11-02T07:36:11;14.30;37.50
728;DHT22;347;48.780;9.158;2022-11-02T07:38:37;14.40;36.30
728;DHT22;347;48.780;9.158;2022-11-02T07:41:03;14.30;35.30
728;DHT22;347;48.780;9.158;2022-11-02T07:43:29;14.10;36.10
728;DHT22;347;48.780;9.158;2022-11-02T07:45:55;14.10;36.80
728;DHT22;347;48.780;9.158;2022-11-02T07:48:21;14.00;36.80
728;DHT22;347;48.780;9.158;2022-11-02T07:50:46;13.90;37.20
728;DHT22;347;48.780;9.158;2022-11-02T07:53:12;13.90;36.60
728;DHT22;347;48.780;9.158;2022-11-02T07:55:39;13.90;37.40
728;DHT22;347;48.780;9.158;2022-11-02T07:58:07;14.00;37.00
728;DHT22;347;48.780;9.158;2022-11-02T08:00:35;13.90;37.20
728;DHT22;347;48.780;9.158;2022-11-02T08:03:03;13.90;37.40
728;DHT22;347;48.780;9.158;2022-11-02T08:05:30;14.00;36.80
728;DHT22;347;48.780;9.158;2022-11-02T08:08:02;14.00;36.50
728;DHT22;347;48.780;9.158;2022-11-02T08:10:30;14.00;36.80
728;DHT22;347;48.780;9.158;2022-11-02T08:12:56;14.00;37.40
728;DHT22;347;48.780;9.158;2022-11-02T08:15:21;14.00;37.10
728;DHT22;347;48.780;9.158;2022-11-02T08:17:47;14.00;37.20
728;DHT22;347;48.780;9.158;2022-11-02T08:20:23;13.90;37.40
728;DHT22;347;48.780;9.158;2022-11-02T08:22:49;14.00;37.50
728;DHT22;347;48.780;9.158;2022-11-02T08:25:14;14.00;37.50
728;DHT22;347;48.780;9.158;2022-11-02T08:27:40;14.00;37.40
728;DHT22;347;48.780;9.158;2022-11-02T08:30:06;14.00;38.00
728;DHT22;347;48.780;9.158;2022-11-02T08:32:32;14.10;37.80
728;DHT22;347;48.780;9.158;2022-11-02T08:34:58;14.00;37.50
728;DHT22;347;48.780;9.158;2022-11-02T08:37:23;14.00;37.70
728;DHT22;347;48.780;9.158;2022-11-02T08:39:49;14.00;38.00
728;DHT22;347;48.780;9.158;2022-11-02T08:42:15;14.10;37.80
728;DHT22;347;48.780;9.158;2022-11-02T08:44:40;14.10;37.50
728;DHT22;347;48.780;9.158;2022-11-02T08:47:06;14.20;37.70
728;DHT22;347;48.780;9.158;2022-11-02T08:49:32;14.30;37.40
728;DHT22;347;48.780;9.158;2022-11-02T08:51:57;14.30;37.30
728;DHT22;347;48.780;9.158;2022-11-02T08:54:23;14.40;37.30
728;DHT22;347;48.780;9.158;2022-11-02T08:56:49;14.50;37.10
728;DHT22;347;48.780;9.158;2022-11-02T08:59:14;14.60;36.70
728;DHT22;347;48.780;9.158;2022-11-02T09:01:40;14.60;36.80
728;DHT22;347;48.780;9.158;2022-11-02T09:04:05;14.70;36.80
728;DHT22;347;48.780;9.158;2022-11-02T09:06:31;14.70;36.40
728;DHT22;347;48.780;9.158;2022-11-02T09:08:57;14.80;35.70
728;DHT22;347;48.780;9.158;2022-11-02T09:11:22;14.70;35.70
728;DHT22;347;48.780;9.158;2022-11-02T09:13:48;14.80;35.70
728;DHT22;347;48.780;9.158;2022-11-02T09:16:14;14.90;35.80
728;DHT22;347;48.780;9.158;2022-11-02T09:18:39;14.80;36.10
728;DHT22;347;48.780;9.158;2022-11-02T09:21:05;14.80;36.40
728;DHT22;347;48.780;9.158;2022-11-02T09:23:32;14.90;36.40
728;DHT22;347;48.780;9.158;2022-11-02T09:25:58;14.90;35.70
728;DHT22;347;48.780;9.158;2022-11-02T09:28:27;14.90;35.80
728;DHT22;347;48.780;9.158;2022-11-02T09:30:52;14.90;35.40
728;DHT22;347;48.780;9.158;2022-11-02T09:33:18;14.90;34.70
728;DHT22;347;48.780;9.158;2022-11-02T09:35:46;14.90;35.00
728;DHT22;347;48.780;9.158;2022-11-02T09:38:12;15.00;34.90
728;DHT22;347;48.780;9.158;2022-11-02T09:40:52;15.10;33.60
728;DHT22;347;48.780;9.158;2022-11-02T09:43:37;15.10;33.40
728;DHT22;347;48.780;9.158;2022-11-02T09:48:44;14.90;33.90
728;DHT22;347;48.780;9.158;2022-11-02T09:51:14;14.80;32.90
728;DHT22;347;48.780;9.158;2022-11-02T09:53:43;14.80;33.20
728;DHT22;347;48.780;9.158;2022-11-02T09:56:16;14.90;33.20
728;DHT22;347;48.780;9.158;2022-11-02T09:58:46;15.00;32.40
728;DHT22;347;48.780;9.158;2022-11-02T10:06:23;15.10;30.80
728;DHT22;347;48.780;9.158;2022-11-02T10:09:25;15.10;31.50
728;DHT22;347;48.780;9.158;2022-11-02T10:15:07;15.20;30.00
728;DHT22;347;48.780;9.158;2022-11-02T10:17:38;15.30;30.00
728;DHT22;347;48.780;9.158;2022-11-02T10:20:21;15.50;29.30
728;DHT22;347;48.780;9.158;2022-11-02T10:22:49;15.50;29.10
728;DHT22;347;48.780;9.158;2022-11-02T10:25:15;15.70;28.80
728;DHT22;347;48.780;9.158;2022-11-02T10:27:43;15.70;28.40
728;DHT22;347;48.780;9.158;2022-11-02T10:30:15;15.70;27.40
728;DHT22;347;48.780;9.158;2022-11-02T10:32:42;15.70;27.20
728;DHT22;347;48.780;9.158;2022-11-02T10:38:20;15.60;27.40
728;DHT22;347;48.780;9.158;2022-11-02T10:48:51;15.50;27.60
728;DHT22;347;48.780;9.158;2022-11-02T10:51:17;15.60;27.60
728;DHT22;347;48.780;9.158;2022-11-02T10:53:46;15.60;27.40
728;DHT22;347;48.780;9.158;2022-11-02T10:56:16;15.60;27.60
728;DHT22;347;48.780;9.158;2022-11-02T10:59:19;15.80;27.60
728;DHT22;347;48.780;9.158;2022-11-02T11:04:28;15.80;27.30
728;DHT22;347;48.780;9.158;2022-11-02T11:06:55;15.90;27.20
728;DHT22;347;48.780;9.158;2022-11-02T11:09:30;15.80;27.40
728;DHT22;347;48.780;9.158;2022-11-02T11:12:29;15.70;27.10
728;DHT22;347;48.780;9.158;2022-11-02T11:14:56;15.70;27.10
728;DHT22;347;48.780;9.158;2022-11-02T11:17:28;15.70;27.40
728;DHT22;347;48.780;9.158;2022-11-02T11:19:57;15.70;27.50
728;DHT22;347;48.780;9.158;2022-11-02T11:22:28;15.70;27.70
728;DHT22;347;48.780;9.158;2022-11-02T11:27:46;15.70;27.10
728;DHT22;347;48.780;9.158;2022-11-02T11:30:27;15.60;27.50
728;DHT22;347;48.780;9.158;2022-11-02T11:32:53;15.80;27.60
728;DHT22;347;48.780;9.158;2022-11-02T11:35:20;16.00;27.30
728;DHT22;347;48.780;9.158;2022-11-02T11:37:52;15.90;27.20
728;DHT22;347;48.780;9.158;2022-11-02T11:40:19;15.90;26.70
728;DHT22;347;48.780;9.158;2022-11-02T11:42:49;15.90;27.20
728;DHT22;347;48.780;9.158;2022-11-02T11:45:22;16.00;26.90
728;DHT22;347;48.780;9.158;2022-11-02T11:50:33;15.90;26.80
728;DHT22;347;48.780;9.158;2022-11-02T11:55:54;15.90;26.10
728;DHT22;347;48.780;9.158;2022-11-02T11:58:28;15.90;25.90
728;DHT22;347;48.780;9.158;2022-11-02T12:03:57;15.90;25.60
728;DHT22;347;48.780;9.158;2022-11-02T12:09:39;15.90;24.60
728;DHT22;347;48.780;9.158;2022-11-02T12:12:25;15.80;24.40
728;DHT22;347;48.780;9.158;2022-11-02T12:20:29;15.70;23.70
728;DHT22;347;48.780;9.158;2022-11-02T12:23:18;15.80;23.40
728;DHT22;347;48.780;9.158;2022-11-02T12:26:04;15.70;23.50
728;DHT22;347;48.780;9.158;2022-11-02T12:31:27;15.90;23.00
728;DHT22;347;48.780;9.158;2022-11-02T12:39:02;16.30;21.80
728;DHT22;347;48.780;9.158;2022-11-02T12:44:37;16.40;21.20
728;DHT22;347;48.780;9.158;2022-11-02T12:53:35;16.20;20.30
728;DHT22;347;48.780;9.158;2022-11-02T12:56:06;16.10;20.60
728;DHT22;347;48.780;9.158;2022-11-02T12:58:37;16.10;20.30
728;DHT22;347;48.780;9.158;2022-11-02T13:01:08;16.10;20.50
728;DHT22;347;48.780;9.158;2022-11-02T13:06:20;16.30;20.90
728;DHT22;347;48.780;9.158;2022-11-02T13:08:57;16.40;20.80
728;DHT22;347;48.780;9.158;2022-11-02T13:11:31;16.50;20.60
728;DHT22;347;48.780;9.158;2022-11-02T13:13:58;16.50;20.80
728;DHT22;347;48.780;9.158;2022-11-02T13:16:53;16.50;20.60
728;DHT22;347;48.780;9.158;2022-11-02T13:19:32;16.60;20.30
728;DHT22;347;48.780;9.158;2022-11-02T13:21:59;16.60;19.90
728;DHT22;347;48.780;9.158;2022-11-02T13:24:49;16.70;19.60
728;DHT22;347;48.780;9.158;2022-11-02T13:27:29;16.60;19.90
728;DHT22;347;48.780;9.158;2022-11-02T13:29:58;16.60;19.70
728;DHT22;347;48.780;9.158;2022-11-02T13:32:35;16.60;19.60
728;DHT22;347;48.780;9.158;2022-11-02T13:35:16;16.60;20.00
728;DHT22;347;48.780;9.158;2022-11-02T13:37:52;16.50;20.60
728;DHT22;347;48.780;9.158;2022-11-02T13:41:08;16.60;20.30
728;DHT22;347;48.780;9.158;2022-11-02T13:46:28;16.60;19.90
728;DHT22;347;48.780;9.158;2022-11-02T13:51:35;16.70;19.50
728;DHT22;347;48.780;9.158;2022-11-02T13:54:21;16.70;19.50
728;DHT22;347;48.780;9.158;2022-11-02T13:56:53;16.60;19.40
728;DHT22;347;48.780;9.158;2022-11-02T13:59:25;16.60;19.90
728;DHT22;347;48.780;9.158;2022-11-02T14:01:53;16.70;19.70
728;DHT22;347;48.780;9.158;2022-11-02T14:04:19;16.70;19.50
728;DHT22;347;48.780;9.158;2022-11-02T14:06:54;16.80;20.00
728;DHT22;347;48.780;9.158;2022-11-02T14:09:32;16.80;21.50
728;DHT22;347;48.780;9.158;2022-11-02T14:20:46;16.60;22.70
728;DHT22;347;48.780;9.158;2022-11-02T14:42:59;16.60;24.10
728;DHT22;347;48.780;9.158;2022-11-02T14:45:43;16.60;23.80
728;DHT22;347;48.780;9.158;2022-11-02T14:48:14;16.60;23.80
728;DHT22;347;48.780;9.158;2022-11-02T14:51:03;16.60;23.70
728;DHT22;347;48.780;9.158;2022-11-02T14:53:32;16.60;24.00
728;DHT22;347;48.780;9.158;2022-11-02T14:55:59;16.60;24.10
728;DHT22;347;48.780;9.158;2022-11-02T14:58:47;16.60;23.90
728;DHT22;347;48.780;9.158;2022-11-02T15:01:14;16.60;23.90
728;DHT22;347;48.780;9.158;2022-11-02T15:03:43;16.60;24.40
728;DHT22;347;48.780;9.158;2022-11-02T15:06:26;16.60;23.80
728;DHT22;347;48.780;9.158;2022-11-02T15:08:54;16.60;23.70
728;DHT22;347;48.780;9.158;2022-11-02T15:19:45;16.60;23.80
728;DHT22;347;48.780;9.158;2022-11-02T15:27:34;16.60;24.60
728;DHT22;347;48.780;9.158;2022-11-02T15:30:01;16.60;24.70
728;DHT22;347;48.780;9.158;2022-11-02T15:32:29;16.50;24.80
728;DHT22;347;48.780;9.158;2022-11-02T15:34:57;16.50;24.90
728;DHT22;347;48.780;9.158;2022-11-02T15:37:29;16.50;25.00
728;DHT22;347;48.780;9.158;2022-11-02T15:39:58;16.40;25.20
728;DHT22;347;48.780;9.158;2022-11-02T15:59:40;16.30;26.40
728;DHT22;347;48.780;9.158;2022-11-02T16:02:18;16.30;26.30
728;DHT22;347;48.780;9.158;2022-11-02T16:04:47;16.20;26.50
728;DHT22;347;48.780;9.158;2022-11-02T16:07:16;16.10;26.60
728;DHT22;347;48.780;9.158;2022-11-02T16:09:42;16.00;26.90
728;DHT22;347;48.780;9.158;2022-11-02T16:12:12;16.00;27.10
728;DHT22;347;48.780;9.158;2022-11-02T16:14:39;16.00;27.30
728;DHT22;347;48.780;9.158;2022-11-02T16:17:05;16.00;27.30
728;DHT22;347;48.780;9.158;2022-11-02T16:19:31;15.90;27.20
728;DHT22;347;48.780;9.158;2022-11-02T16:21:56;16.00;27.30
728;DHT22;347;48.780;9.158;2022-11-02T16:24:22;16.00;27.30
728;DHT22;347;48.780;9.158;2022-11-02T16:26:48;15.90;27.20
728;DHT22;347;48.780;9.158;2022-11-02T16:29:24;15.90;27.50
728;DHT22;347;48.780;9.158;2022-11-02T16:31:51;15.90;27.80
728;DHT22;347;48.780;9.158;2022-11-02T16:34:27;15.80;27.80
728;DHT22;347;48.780;9.158;2022-11-02T16:36:54;15.80;27.80
728;DHT22;347;48.780;9.158;2022-11-02T16:39:26;15.70;27.60
728;DHT22;347;48.780;9.158;2022-11-02T16:42:06;15.40;28.70
728;DHT22;347;48.780;9.158;2022-11-02T16:44:32;15.20;29.70
728;DHT22;347;48.780;9.158;2022-11-02T16:49:31;15.20;29.40
728;DHT22;347;48.780;9.158;2022-11-02T16:52:12;15.10;29.20
728;DHT22;347;48.780;9.158;2022-11-02T16:54:42;14.90;29.80
728;DHT22;347;48.780;9.158;2022-11-02T16:57:21;14.90;31.10
728;DHT22;347;48.780;9.158;2022-11-02T16:59:55;15.00;30.00
728;DHT22;347;48.780;9.158;2022-11-02T17:02:35;14.90;30.00
728;DHT22;347;48.780;9.158;2022-11-02T17:05:02;14.90;30.30
728;DHT22;347;48.780;9.158;2022-11-02T17:07:35;15.00;30.00
728;DHT22;347;48.780;9.158;2022-11-02T17:10:04;15.00;29.80
728;DHT22;347;48.780;9.158;2022-11-02T17:12:34;15.00;29.90
728;DHT22;347;48.780;9.158;2022-11-02T17:15:14;15.10;29.70
728;DHT22;347;48.780;9.158;2022-11-02T17:17:41;15.20;29.60
728;DHT22;347;48.780;9.158;2022-11-02T17:20:19;15.20;29.40
728;DHT22;347;48.780;9.158;2022-11-02T17:25:30;15.20;29.20
728;DHT22;347;48.780;9.158;2022-11-02T17:27:57;15.20;29.10
728;DHT22;347;48.780;9.158;2022-11-02T17:33:05;15.20;29.40
728;DHT22;347;48.780;9.158;2022-11-02T17:35:32;15.00;30.00
728;DHT22;347;48.780;9.158;2022-11-02T17:37:57;14.70;30.40
728;DHT22;347;48.780;9.158;2022-11-02T17:40:23;14.60;31.40
728;DHT22;347;48.780;9.158;2022-11-02T17:42:49;14.60;31.30
728;DHT22;347;48.780;9.158;2022-11-02T17:47:51;14.00;33.40
728;DHT22;347;48.780;9.158;2022-11-02T17:50:18;13.80;34.10
728;DHT22;347;48.780;9.158;2022-11-02T17:52:43;13.80;34.50
728;DHT22;347;48.780;9.158;2022-11-02T17:55:31;13.90;34.90
728;DHT22;347;48.780;9.158;2022-11-02T17:57:58;14.10;34.10
728;DHT22;347;48.780;9.158;2022-11-02T18:00:25;14.30;33.50
728;DHT22;347;48.780;9.158;2022-11-02T18:02:57;14.30;32.80
728;DHT22;347;48.780;9.158;2022-11-02T18:05:35;14.30;33.20
728;DHT22;347;48.780;9.158;2022-11-02T18:08:04;14.30;33.70
728;DHT22;347;48.780;9.158;2022-11-02T18:10:37;14.40;32.80
728;DHT22;347;48.780;9.158;2022-11-02T18:13:03;14.50;32.60
728;DHT22;347;48.780;9.158;2022-11-02T18:15:30;14.60;32.20
728;DHT22;347;48.780;9.158;2022-11-02T18:17:56;14.60;32.00
728;DHT22;347;48.780;9.158;2022-11-02T18:20:25;14.60;31.90
728;DHT22;347;48.780;9.158;2022-11-02T18:22:52;14.70;31.60
728;DHT22;347;48.780;9.158;2022-11-02T18:25:19;14.70;31.60
728;DHT22;347;48.780;9.158;2022-11-02T18:27:45;14.70;31.40
728;DHT22;347;48.780;9.158;2022-11-02T18:30:13;14.70;31.40
728;DHT22;347;48.780;9.158;2022-11-02T18:32:41;14.60;31.40
728;DHT22;347;48.780;9.158;2022-11-02T18:35:10;14.60;31.60
728;DHT22;347;48.780;9.158;2022-11-02T18:37:36;14.60;31.70
728;DHT22;347;48.780;9.158;2022-11-02T18:40:04;14.60;31.50
728;DHT22;347;48.780;9.158;2022-11-02T18:42:30;14.60;31.40
728;DHT22;347;48.780;9.158;2022-11-02T18:44:55;14.60;31.30
728;DHT22;347;48.780;9.158;2022-11-02T18:47:24;14.60;31.30
728;DHT22;347;48.780;9.158;2022-11-02T18:49:49;14.20;32.20
728;DHT22;347;48.780;9.158;2022-11-02T18:52:15;14.00;33.10
728;DHT22;347;48.780;9.158;2022-11-02T18:54:41;13.90;33.60
728;DHT22;347;48.780;9.158;2022-11-02T18:57:06;14.00;32.80
728;DHT22;347;48.780;9.158;2022-11-02T18:59:32;14.00;32.90
728;DHT22;347;48.780;9.158;2022-11-02T19:02:00;14.00;33.10
728;DHT22;347;48.780;9.158;2022-11-02T19:04:28;14.00;33.20
728;DHT22;347;48.780;9.158;2022-11-02T19:06:53;14.10;32.60
728;DHT22;347;48.780;9.158;2022-11-02T19:09:37;14.10;32.30
728;DHT22;347;48.780;9.158;2022-11-02T19:12:12;14.20;31.90
728;DHT22;347;48.780;9.158;2022-11-02T19:14:41;14.20;32.00
728;DHT22;347;48.780;9.158;2022-11-02T19:17:09;14.30;32.00
728;DHT22;347;48.780;9.158;2022-11-02T19:19:35;14.20;32.30
728;DHT22;347;48.780;9.158;2022-11-02T19:22:01;14.30;32.00
728;DHT22;347;48.780;9.158;2022-11-02T19:24:27;14.30;31.80
728;DHT22;347;48.780;9.158;2022-11-02T19:26:53;14.30;31.70
728;DHT22;347;48.780;9.158;2022-11-02T19:29:19;14.30;31.90
728;DHT22;347;48.780;9.158;2022-11-02T19:31:45;14.30;31.90
728;DHT22;347;48.780;9.158;2022-11-02T19:34:11;14.30;31.70
728;DHT22;347;48.780;9.158;2022-11-02T19:36:37;14.30;31.80
728;DHT22;347;48.780;9.158;2022-11-02T19:39:03;14.30;31.50
728;DHT22;347;48.780;9.158;2022-11-02T19:41:31;14.40;31.50
728;DHT22;347;48.780;9.158;2022-11-02T19:43:57;14.20;32.10